Time;durP1;ratioP1;P1;durP2;ratioP2;P2;SDS_P1;SDS_P2;PMS_P1;PMS_P2;Temp;Humidity;BMP_temperature;BMP_pressure;BME280_temperature;BME280_humidity;BME280_pressure;Samples;Min_cycle;Max_cycle;Signal;HPM_P1;HPM_P2
2021/04/30 00:00:21;;;;;;;17.20;8.48;;;;;;;5.46;63.61;99215.25;5090065;28;20122;-72
2021/04/30 00:02:46;;;;;;;12.70;8.98;;;;;;;5.43;63.89;99219.75;5091516;28;20048;-72
2021/04/30 00:05:12;;;;;;;13.07;9.48;;;;;;;5.40;63.84;99214.63;5090840;28;20062;-76
2021/04/30 00:07:38;;;;;;;11.80;7.95;;;;;;;5.40;63.72;99214.63;5089918;28;20031;-72
2021/04/30 00:10:04;;;;;;;15.30;8.50;;;;;;;5.36;63.71;99216.50;5089938;28;20048;-73
2021/04/30 00:12:30;;;;;;;15.13;8.00;;;;;;;5.34;63.66;99211.34;5091246;28;20399;-71
2021/04/30 00:14:55;;;;;;;12.85;8.35;;;;;;;5.36;63.79;99219.13;5090426;28;20036;-71
2021/04/30 00:17:21;;;;;;;16.02;9.45;;;;;;;5.32;63.68;99218.38;5090382;28;20156;-71
2021/04/30 00:19:46;;;;;;;14.15;8.93;;;;;;;5.29;63.77;99215.91;5089842;28;20039;-72
2021/04/30 00:22:11;;;;;;;14.65;10.20;;;;;;;5.27;63.62;99219.47;5073015;28;20036;-72
2021/04/30 00:24:37;;;;;;;15.32;9.73;;;;;;;5.20;64.21;99212.78;5091042;28;20625;-72
2021/04/30 00:27:03;;;;;;;11.77;9.50;;;;;;;5.17;64.54;99224.19;5091171;28;20040;-72
2021/04/30 00:29:29;;;;;;;11.05;8.55;;;;;;;5.08;65.09;99227.97;5092493;28;20020;-73
2021/04/30 00:31:54;;;;;;;17.27;10.15;;;;;;;4.99;65.06;99225.66;5091614;28;20506;-73
2021/04/30 00:34:20;;;;;;;16.23;10.43;;;;;;;4.91;64.80;99227.72;5093112;28;20036;-72
2021/04/30 00:36:45;;;;;;;20.08;10.65;;;;;;;4.85;65.23;99234.00;5097715;28;20081;-71
2021/04/30 00:39:11;;;;;;;16.35;9.30;;;;;;;4.85;65.05;99235.75;5090678;28;20039;-74
2021/04/30 00:41:38;;;;;;;16.77;9.93;;;;;;;4.80;65.90;99229.84;5091396;28;20028;-73
2021/04/30 00:44:06;;;;;;;18.85;11.00;;;;;;;4.72;66.05;99232.72;5072446;28;20066;-71
2021/04/30 00:46:32;;;;;;;18.58;11.10;;;;;;;4.72;65.84;99243.16;5091263;28;20032;-73
2021/04/30 00:48:57;;;;;;;15.75;9.98;;;;;;;4.71;65.95;99242.31;5090277;28;20398;-71
2021/04/30 00:51:23;;;;;;;16.50;11.48;;;;;;;4.70;65.79;99242.34;5091219;28;20046;-71
2021/04/30 00:53:48;;;;;;;12.43;10.13;;;;;;;4.65;66.06;99244.25;5092282;28;20040;-72
2021/04/30 00:56:14;;;;;;;20.05;11.88;;;;;;;4.64;65.79;99250.41;5091407;28;20043;-73
2021/04/30 00:58:40;;;;;;;18.25;10.10;;;;;;;4.61;65.71;99250.50;5072222;28;20484;-72
2021/04/30 01:01:06;;;;;;;18.88;12.50;;;;;;;4.55;66.01;99248.94;5072901;28;20036;-72
2021/04/30 01:03:32;;;;;;;16.05;10.65;;;;;;;4.51;66.40;99253.44;5093057;28;20032;-72
2021/04/30 01:05:57;;;;;;;17.05;12.02;;;;;;;4.50;66.19;99248.25;5090718;28;20389;-72
2021/04/30 01:08:22;;;;;;;14.77;10.38;;;;;;;4.49;66.27;99246.56;5089359;28;20110;-74
2021/04/30 01:10:48;;;;;;;17.02;11.35;;;;;;;4.48;66.24;99250.94;5072177;28;20152;-73
2021/04/30 01:13:13;;;;;;;25.60;10.05;;;;;;;4.45;66.62;99251.00;5089833;28;20028;-73
2021/04/30 01:15:39;;;;;;;20.65;11.65;;;;;;;4.40;66.41;99252.91;5089262;28;20028;-72
2021/04/30 01:18:04;;;;;;;20.50;12.23;;;;;;;4.35;66.83;99259.19;5089793;28;20040;-71
2021/04/30 01:20:32;;;;;;;19.50;10.88;;;;;;;4.32;66.66;99259.31;5089388;28;20040;-72
2021/04/30 01:22:57;;;;;;;19.90;11.98;;;;;;;4.29;66.85;99257.66;5090450;28;20503;-71
2021/04/30 01:25:26;;;;;;;18.92;11.05;;;;;;;4.31;66.78;99255.84;5089846;28;20095;-71
2021/04/30 01:27:52;;;;;;;21.65;10.65;;;;;;;4.29;66.83;99260.25;5089588;28;20407;-70
2021/04/30 01:30:24;;;;;;;16.88;10.70;;;;;;;4.28;66.69;99267.22;5089952;28;20040;-70
2021/04/30 01:32:50;;;;;;;14.05;10.48;;;;;;;4.24;66.77;99267.38;5089436;28;20480;-71
2021/04/30 01:35:28;;;;;;;16.80;10.98;;;;;;;4.21;66.52;99264.84;5089502;28;20111;-71
2021/04/30 01:37:54;;;;;;;20.95;10.10;;;;;;;4.24;66.26;99272.59;5090091;28;20051;-71
2021/04/30 01:40:25;;;;;;;14.65;10.85;;;;;;;4.30;66.32;99268.00;5090101;28;20047;-72
2021/04/30 01:43:03;;;;;;;20.52;12.00;;;;;;;4.34;65.57;99262.72;5089385;28;20506;-72
2021/04/30 01:45:37;;;;;;;19.80;10.40;;;;;;;4.29;66.42;99253.28;5089279;28;20064;-72
2021/04/30 01:48:06;;;;;;;18.20;10.48;;;;;;;4.31;66.38;99248.00;5089379;28;20047;-73
2021/04/30 01:50:32;;;;;;;16.25;11.63;;;;;;;4.25;66.11;99243.81;5089382;28;20032;-71
2021/04/30 01:52:57;;;;;;;20.42;11.48;;;;;;;4.27;66.23;99246.41;5093140;28;20044;-71
2021/04/30 01:55:28;;;;;;;19.90;11.45;;;;;;;4.28;65.89;99248.97;5092167;28;20510;-71
2021/04/30 01:57:54;;;;;;;15.05;9.57;;;;;;;4.34;65.89;99245.28;5092583;28;20039;-71
2021/04/30 02:00:26;;;;;;;13.88;8.40;;;;;;;4.37;66.01;99247.81;5092965;28;20040;-69
2021/04/30 02:02:53;;;;;;;15.82;10.15;;;;;;;4.39;65.65;99246.00;5092634;28;20105;-71
2021/04/30 02:05:21;;;;;;;18.88;11.48;;;;;;;4.38;65.78;99239.09;5073827;28;20076;-71
2021/04/30 02:07:46;;;;;;;23.02;9.95;;;;;;;4.41;65.71;99248.56;5092809;28;20036;-71
2021/04/30 02:10:18;;;;;;;14.18;8.93;;;;;;;4.44;65.75;99246.69;5092589;28;20047;-71
2021/04/30 02:12:44;;;;;;;14.77;9.27;;;;;;;4.49;65.55;99262.22;5092505;28;20024;-70
2021/04/30 02:15:10;;;;;;;13.65;9.40;;;;;;;4.50;65.42;99251.72;5092215;28;20032;-72
2021/04/30 02:17:38;;;;;;;17.52;10.18;;;;;;;4.54;65.27;99247.25;5091441;28;20395;-72
2021/04/30 02:20:05;;;;;;;13.13;9.38;;;;;;;4.48;65.57;99247.47;5092350;28;20040;-72
2021/04/30 02:22:31;;;;;;;13.55;9.65;;;;;;;4.52;65.16;99249.91;5091901;28;20047;-71
2021/04/30 02:24:57;;;;;;;19.45;11.75;;;;;;;4.55;65.74;99246.34;5091751;28;20093;-71
2021/04/30 02:27:22;;;;;;;12.02;9.82;;;;;;;4.58;65.14;99242.75;5073534;28;20483;-74
2021/04/30 02:29:48;;;;;;;16.65;11.43;;;;;;;4.59;64.96;99245.34;5092241;28;20063;-71
2021/04/30 02:32:13;;;;;;;12.15;10.00;;;;;;;4.65;64.97;99246.88;5074224;28;20119;-72
2021/04/30 02:34:39;;;;;;;12.30;9.48;;;;;;;4.69;64.88;99240.66;5091775;28;20510;-71
2021/04/30 02:37:04;;;;;;;13.93;10.95;;;;;;;4.73;65.13;99237.91;5091668;28;20040;-70
2021/04/30 02:39:30;;;;;;;15.48;10.25;;;;;;;4.75;64.19;99232.63;5091604;28;20487;-70
2021/04/30 02:41:55;;;;;;;19.52;10.90;;;;;;;4.79;64.30;99235.97;5091298;28;20399;-70
2021/04/30 02:44:20;;;;;;;21.45;11.30;;;;;;;4.82;64.26;99244.53;5092304;28;20052;-71
2021/04/30 02:46:46;;;;;;;14.70;9.90;;;;;;;4.85;64.21;99244.47;5090329;28;20040;-71
2021/04/30 02:49:15;;;;;;;13.55;10.18;;;;;;;4.88;64.03;99244.34;5091731;28;20044;-71
2021/04/30 02:51:40;;;;;;;16.77;10.23;;;;;;;4.87;64.03;99245.25;5091657;28;20093;-73
2021/04/30 02:54:06;;;;;;;15.00;9.50;;;;;;;4.88;64.46;99246.97;5073497;28;20036;-72
2021/04/30 02:56:35;;;;;;;17.75;9.88;;;;;;;4.89;64.12;99253.03;5091515;28;20086;-73
2021/04/30 02:59:04;;;;;;;14.15;9.52;;;;;;;4.92;64.16;99251.19;5091721;28;20056;-73
2021/04/30 03:01:29;;;;;;;19.25;12.80;;;;;;;4.91;63.63;99244.22;5073548;28;20435;-73
2021/04/30 03:03:55;;;;;;;12.88;10.05;;;;;;;4.89;64.17;99246.03;5090319;28;20059;-74
2021/04/30 03:06:20;;;;;;;13.65;11.85;;;;;;;4.88;64.38;99256.56;5091735;28;20114;-74
2021/04/30 03:08:51;;;;;;;18.33;10.63;;;;;;;4.88;64.35;99260.03;5091382;28;20062;-73
2021/04/30 03:11:16;;;;;;;12.40;8.95;;;;;;;4.92;64.42;99260.75;5091278;28;20066;-73
2021/04/30 03:13:41;;;;;;;13.68;10.48;;;;;;;4.92;63.99;99266.84;5072913;28;20043;-70
2021/04/30 03:16:07;;;;;;;16.45;9.52;;;;;;;4.93;64.32;99263.31;5091039;28;20028;-73
2021/04/30 03:18:32;;;;;;;15.93;9.98;;;;;;;4.94;64.36;99270.22;5091463;28;20040;-71
2021/04/30 03:20:58;;;;;;;27.38;11.05;;;;;;;4.95;64.02;99261.50;5091259;28;20035;-70
2021/04/30 03:23:23;;;;;;;12.90;10.95;;;;;;;4.94;64.21;99257.19;5090889;28;20032;-71
2021/04/30 03:25:49;;;;;;;14.93;9.38;;;;;;;5.00;64.41;99255.28;5091351;28;20434;-71
2021/04/30 03:28:14;;;;;;;17.95;10.88;;;;;;;5.01;64.26;99249.13;5091149;28;20028;-71
2021/04/30 03:30:39;;;;;;;17.45;10.30;;;;;;;5.01;64.25;99257.81;5091047;28;20416;-70
2021/04/30 03:33:05;;;;;;;16.52;10.30;;;;;;;5.01;64.30;99257.81;5073275;28;20441;-71
2021/04/30 03:35:30;;;;;;;12.43;9.90;;;;;;;4.99;64.02;99250.94;5090871;28;20403;-72
2021/04/30 03:37:55;;;;;;;18.02;11.48;;;;;;;4.99;64.23;99243.13;5090994;28;20372;-71
2021/04/30 03:40:21;;;;;;;15.45;10.60;;;;;;;4.99;64.21;99235.28;5091400;28;20078;-71
2021/04/30 03:42:47;;;;;;;15.77;9.45;;;;;;;4.99;63.94;99233.50;5090772;28;20036;-71
2021/04/30 03:45:13;;;;;;;15.38;10.05;;;;;;;5.03;63.63;99232.50;5090739;28;20047;-71
2021/04/30 03:47:38;;;;;;;12.02;9.10;;;;;;;5.06;63.97;99234.16;5072326;28;20039;-71
2021/04/30 03:50:04;;;;;;;15.90;10.57;;;;;;;5.10;63.86;99228.78;5091149;28;20035;-72
2021/04/30 03:52:30;;;;;;;13.82;10.63;;;;;;;5.12;63.79;99231.34;5091060;28;20534;-72
2021/04/30 03:54:55;;;;;;;18.50;10.65;;;;;;;5.10;64.02;99226.16;5091038;28;20040;-71
2021/04/30 03:57:20;;;;;;;18.08;10.65;;;;;;;5.05;64.12;99225.47;5072459;28;20510;-71
2021/04/30 03:59:46;;;;;;;15.68;9.98;;;;;;;5.01;64.23;99231.69;5090779;28;20044;-71
2021/04/30 04:02:11;;;;;;;16.75;12.38;;;;;;;5.03;64.52;99236.88;5090250;28;20480;-71
2021/04/30 04:04:36;;;;;;;16.90;11.57;;;;;;;5.02;64.11;99241.25;5090314;28;20043;-71
2021/04/30 04:07:02;;;;;;;20.17;12.85;;;;;;;5.06;64.17;99247.22;5090225;28;20043;-71
2021/04/30 04:09:27;;;;;;;20.83;11.75;;;;;;;5.00;64.71;99245.69;5091744;28;20097;-71
2021/04/30 04:11:52;;;;;;;22.13;13.00;;;;;;;5.04;64.05;99244.66;5091956;28;20032;-70
2021/04/30 04:14:18;;;;;;;23.25;11.85;;;;;;;5.02;64.70;99245.59;5089420;28;20434;-70
2021/04/30 04:16:43;;;;;;;15.57;10.25;;;;;;;5.04;64.32;99241.19;5091107;28;20395;-71
2021/04/30 04:19:09;;;;;;;13.73;10.05;;;;;;;5.06;64.00;99240.22;5092286;28;20032;-71
2021/04/30 04:21:34;;;;;;;15.52;10.93;;;;;;;5.09;64.47;99234.03;5092904;28;20028;-71
2021/04/30 04:24:00;;;;;;;15.77;11.73;;;;;;;5.12;64.14;99234.78;5094465;28;20103;-71
2021/04/30 04:26:25;;;;;;;21.38;11.75;;;;;;;5.20;63.86;99238.91;5097608;28;20503;-70
2021/04/30 04:28:51;;;;;;;15.85;11.30;;;;;;;5.26;63.64;99236.91;5094806;28;20028;-70
2021/04/30 04:31:16;;;;;;;14.15;11.00;;;;;;;5.29;63.66;99238.53;5093121;28;20066;-70
2021/04/30 04:33:41;;;;;;;16.13;11.65;;;;;;;5.30;63.44;99242.88;5091079;28;20039;-72
2021/04/30 04:36:07;;;;;;;19.15;12.13;;;;;;;5.32;63.68;99249.75;5092033;28;20036;-72
2021/04/30 04:38:33;;;;;;;14.98;10.38;;;;;;;5.38;62.89;99246.06;5092680;28;20403;-71
2021/04/30 04:40:58;;;;;;;15.93;10.77;;;;;;;5.31;63.43;99247.19;5092441;28;20040;-71
2021/04/30 04:43:24;;;;;;;15.60;11.45;;;;;;;5.37;63.30;99245.22;5095416;28;20070;-71
2021/04/30 04:45:51;;;;;;;17.55;11.70;;;;;;;5.37;63.16;99247.81;5094459;28;20036;-70
2021/04/30 04:48:16;;;;;;;15.70;11.68;;;;;;;5.44;63.34;99255.41;5092302;28;20032;-72
2021/04/30 04:50:43;;;;;;;18.70;13.35;;;;;;;5.48;62.96;99255.25;5100494;28;20039;-72
2021/04/30 04:53:09;;;;;;;17.73;12.75;;;;;;;5.47;62.77;99266.63;5106321;28;20043;-72
2021/04/30 04:55:34;;;;;;;15.07;11.73;;;;;;;5.42;62.92;99272.94;5087919;28;20036;-72
2021/04/30 04:57:59;;;;;;;20.17;13.50;;;;;;;5.42;62.79;99272.94;5092974;28;20403;-72
2021/04/30 05:00:25;;;;;;;21.67;13.48;;;;;;;5.36;63.38;99274.84;5089759;28;20035;-71
2021/04/30 05:02:50;;;;;;;16.95;11.70;;;;;;;5.30;63.34;99282.94;5090638;28;20044;-71
2021/04/30 05:05:15;;;;;;;17.27;12.77;;;;;;;5.30;63.76;99288.16;5090478;28;20024;-71
2021/04/30 05:07:41;;;;;;;20.73;11.55;;;;;;;5.30;63.62;99282.09;5090054;28;20039;-72
2021/04/30 05:10:07;;;;;;;18.98;12.55;;;;;;;5.27;63.61;99279.59;5090107;28;20086;-72
2021/04/30 05:12:32;;;;;;;19.13;14.05;;;;;;;5.24;63.98;99267.47;5089793;28;20554;-71
2021/04/30 05:14:57;;;;;;;18.25;13.38;;;;;;;5.27;63.94;99271.75;5089127;28;20139;-73
2021/04/30 05:17:23;;;;;;;25.17;14.65;;;;;;;5.27;64.23;99272.59;5071293;28;20387;-72
2021/04/30 05:19:49;;;;;;;21.40;12.48;;;;;;;5.34;63.69;99273.19;5089228;28;20035;-72
2021/04/30 05:22:15;;;;;;;18.00;12.40;;;;;;;5.35;63.65;99261.84;5089395;28;20043;-71
2021/04/30 05:24:42;;;;;;;20.17;13.25;;;;;;;5.44;64.23;99258.91;5089055;28;20028;-75
2021/04/30 05:27:11;;;;;;;18.63;12.77;;;;;;;5.52;63.67;99258.63;5091974;28;20050;-74
2021/04/30 05:29:44;;;;;;;20.48;13.57;;;;;;;5.63;63.23;99276.53;5093276;28;20081;-70
2021/04/30 05:32:12;;;;;;;17.55;11.88;;;;;;;5.69;63.38;99276.31;5093310;28;20028;-71
2021/04/30 05:34:39;;;;;;;23.05;15.23;;;;;;;5.75;62.94;99270.84;5092910;28;20039;-71
2021/04/30 05:37:06;;;;;;;18.25;13.35;;;;;;;5.82;62.46;99273.16;5092862;28;20032;-71
2021/04/30 05:39:32;;;;;;;25.92;12.63;;;;;;;5.91;62.45;99273.72;5092681;28;20036;-74
2021/04/30 05:41:58;;;;;;;18.95;12.23;;;;;;;6.03;62.16;99275.91;5092869;28;20044;-74
2021/04/30 05:44:24;;;;;;;21.95;11.85;;;;;;;6.12;61.62;99278.13;5092138;28;20043;-71
2021/04/30 05:46:49;;;;;;;36.20;17.23;;;;;;;6.13;61.29;99279.88;5093691;28;20039;-72
2021/04/30 05:49:15;;;;;;;22.80;13.20;;;;;;;6.09;61.65;99280.03;5095025;28;20028;-70
2021/04/30 05:51:40;;;;;;;19.25;13.95;;;;;;;6.12;62.01;99287.75;5092042;28;20079;-73
2021/04/30 05:54:06;;;;;;;20.75;11.52;;;;;;;6.15;61.57;99290.25;5093052;28;20024;-73
2021/04/30 05:56:31;;;;;;;19.65;13.05;;;;;;;6.16;61.57;99291.97;5093432;28;20112;-72
2021/04/30 05:58:57;;;;;;;18.70;12.57;;;;;;;6.12;61.22;99283.38;5076423;28;20031;-72
2021/04/30 06:01:23;;;;;;;20.63;13.63;;;;;;;6.16;61.63;99282.34;5096780;28;20587;-71
2021/04/30 06:03:49;;;;;;;18.40;12.15;;;;;;;6.23;61.68;99281.19;5091966;28;20040;-65
2021/04/30 06:06:14;;;;;;;18.60;13.63;;;;;;;6.30;61.04;99276.59;5096036;28;20040;-67
2021/04/30 06:08:40;;;;;;;24.00;13.57;;;;;;;6.30;61.18;99280.94;5094345;28;20039;-67
2021/04/30 06:11:05;;;;;;;17.95;11.85;;;;;;;6.40;61.29;99279.69;5090868;28;20039;-67
2021/04/30 06:13:31;;;;;;;37.05;14.27;;;;;;;6.49;60.84;99279.28;5092641;28;20051;-68
2021/04/30 06:15:56;;;;;;;22.85;13.00;;;;;;;6.65;60.38;99277.75;5091953;28;20040;-67
2021/04/30 06:18:22;;;;;;;22.17;12.88;;;;;;;6.76;59.77;99284.31;5092973;28;20055;-68
2021/04/30 06:20:47;;;;;;;16.27;12.45;;;;;;;6.77;59.46;99281.66;5074272;28;20032;-67
2021/04/30 06:23:13;;;;;;;17.75;12.63;;;;;;;6.79;59.16;99290.28;5092064;28;20044;-68
2021/04/30 06:25:38;;;;;;;22.50;13.15;;;;;;;6.84;59.26;99279.59;5091661;28;20032;-67
2021/04/30 06:28:04;;;;;;;25.73;13.23;;;;;;;6.80;59.46;99285.91;5074126;28;20067;-68
2021/04/30 06:30:30;;;;;;;18.50;12.82;;;;;;;6.88;59.45;99284.66;5075429;28;20127;-68
2021/04/30 06:32:55;;;;;;;16.70;12.45;;;;;;;6.96;59.45;99291.34;5086268;28;20147;-67
2021/04/30 06:35:22;;;;;;;16.08;12.43;;;;;;;7.08;58.91;99286.41;5096715;28;20473;-67
2021/04/30 06:37:47;;;;;;;18.88;12.20;;;;;;;7.07;58.62;99283.88;5085569;28;20063;-68
2021/04/30 06:40:13;;;;;;;23.20;13.25;;;;;;;7.17;58.87;99282.56;5081105;28;20059;-66
2021/04/30 06:42:39;;;;;;;18.83;13.27;;;;;;;7.29;58.36;99276.78;5086177;28;20407;-66
2021/04/30 06:45:06;;;;;;;23.30;13.85;;;;;;;7.42;58.42;99277.09;5051035;28;20043;-68
2021/04/30 06:47:33;;;;;;;35.90;13.30;;;;;;;7.47;57.59;99282.97;5086144;28;20047;-67
2021/04/30 06:49:59;;;;;;;29.35;12.32;;;;;;;7.52;57.62;99281.00;5085863;28;20062;-72
2021/04/30 06:52:24;;;;;;;19.48;13.52;;;;;;;7.56;57.46;99292.22;5087155;28;20036;-73
2021/04/30 06:54:49;;;;;;;19.15;13.60;;;;;;;7.64;57.37;99289.25;5086410;28;20404;-72
2021/04/30 06:57:16;;;;;;;24.70;13.60;;;;;;;7.62;56.88;99294.53;5088032;28;20464;-73
2021/04/30 06:59:43;;;;;;;20.10;14.02;;;;;;;7.58;57.24;99289.50;5088762;28;20371;-73
2021/04/30 07:02:09;;;;;;;16.40;12.73;;;;;;;7.52;57.45;99293.25;5088743;28;20043;-72
2021/04/30 07:04:35;;;;;;;21.38;14.63;;;;;;;7.53;57.41;99297.56;5086954;28;20024;-72
2021/04/30 07:07:01;;;;;;;20.02;12.35;;;;;;;7.55;57.18;99293.13;5086856;28;20039;-72
2021/04/30 07:09:26;;;;;;;17.02;12.32;;;;;;;7.58;57.17;99294.75;5086230;28;20036;-74
2021/04/30 07:11:52;;;;;;;15.25;12.52;;;;;;;7.64;56.74;99292.72;5087695;28;20039;-73
2021/04/30 07:14:18;;;;;;;19.15;12.00;;;;;;;7.74;56.85;99307.09;5086676;28;20032;-73
2021/04/30 07:16:43;;;;;;;19.83;12.13;;;;;;;7.83;56.96;99297.13;5086064;28;20138;-74
2021/04/30 07:19:08;;;;;;;27.10;11.93;;;;;;;7.85;56.65;99304.03;5086998;28;20055;-74
2021/04/30 07:21:34;;;;;;;17.15;12.60;;;;;;;7.91;56.29;99303.72;5086723;28;20448;-74
2021/04/30 07:23:59;;;;;;;17.15;12.23;;;;;;;7.74;56.54;99301.88;5069028;28;20032;-76
2021/04/30 07:26:25;;;;;;;17.33;12.60;;;;;;;7.75;56.42;99307.97;5086297;28;20039;-74
2021/04/30 07:28:50;;;;;;;20.17;13.77;;;;;;;7.72;56.43;99302.84;5086115;28;20070;-73
2021/04/30 07:31:16;;;;;;;20.75;13.52;;;;;;;7.79;56.61;99303.44;5070551;28;20605;-72
2021/04/30 07:33:46;;;;;;;22.48;13.07;;;;;;;7.86;56.23;99303.09;5106201;28;20034;-73
2021/04/30 07:36:12;;;;;;;20.50;12.98;;;;;;;7.97;56.28;99307.81;5106013;28;20406;-72
2021/04/30 07:38:38;;;;;;;19.55;11.57;;;;;;;8.06;56.09;99311.81;5104054;28;20031;-73
2021/04/30 07:41:03;;;;;;;22.20;12.52;;;;;;;8.17;55.86;99309.53;5105881;28;20410;-73
2021/04/30 07:43:28;;;;;;;18.25;12.68;;;;;;;8.29;55.01;99310.72;5105305;28;20183;-72
2021/04/30 07:45:54;;;;;;;18.83;11.45;;;;;;;8.33;54.93;99313.13;5105908;28;20039;-74
2021/04/30 07:48:19;;;;;;;20.63;13.50;;;;;;;8.31;54.99;99320.22;5105440;28;20036;-73
2021/04/30 07:50:45;;;;;;;19.90;13.07;;;;;;;8.38;55.02;99313.75;5061485;28;20036;-72
2021/04/30 07:53:10;;;;;;;15.65;11.27;;;;;;;8.36;54.62;99314.75;5089688;28;20040;-71
2021/04/30 07:55:35;;;;;;;18.85;12.70;;;;;;;8.41;54.12;99310.16;5096649;28;20031;-72
2021/04/30 07:58:01;;;;;;;17.45;11.30;;;;;;;8.40;53.86;99310.25;5092118;28;20498;-72
2021/04/30 08:00:28;;;;;;;16.10;11.77;;;;;;;8.43;53.66;99305.69;5096988;28;20043;-76
2021/04/30 08:02:53;;;;;;;15.32;10.93;;;;;;;8.33;54.45;99309.66;5105813;28;20226;-73
2021/04/30 08:05:20;;;;;;;18.75;13.30;;;;;;;8.33;54.69;99312.28;5105490;28;20439;-72
2021/04/30 08:07:45;;;;;;;19.83;12.07;;;;;;;8.25;55.04;99312.66;5105241;28;20032;-72
2021/04/30 08:10:11;;;;;;;17.83;13.73;;;;;;;8.23;55.12;99314.50;5084817;28;20088;-74
2021/04/30 08:12:38;;;;;;;19.45;12.35;;;;;;;8.13;55.95;99313.22;5086182;28;20039;-73
2021/04/30 08:15:05;;;;;;;21.48;12.93;;;;;;;8.23;55.57;99317.13;5086397;28;20039;-73
2021/04/30 08:17:30;;;;;;;20.70;12.57;;;;;;;8.25;55.79;99323.16;5101331;28;20035;-71
2021/04/30 08:19:58;;;;;;;15.43;11.65;;;;;;;8.38;55.62;99326.06;5090095;28;20490;-74
2021/04/30 08:22:26;;;;;;;16.45;10.57;;;;;;;8.40;55.62;99328.66;5057116;28;20040;-72
2021/04/30 08:24:51;;;;;;;13.00;11.65;;;;;;;8.56;54.94;99324.34;5068079;28;20044;-71
2021/04/30 08:27:19;;;;;;;19.52;12.45;;;;;;;8.76;54.47;99318.09;5076441;28;20588;-71
2021/04/30 08:29:45;;;;;;;13.80;11.88;;;;;;;8.82;54.30;99315.19;5077563;28;20065;-71
2021/04/30 08:32:10;;;;;;;25.00;13.05;;;;;;;8.97;54.52;99324.94;5093733;28;20035;-72
2021/04/30 08:34:36;;;;;;;19.75;11.93;;;;;;;9.08;53.39;99323.53;5092388;28;20034;-71
2021/04/30 08:37:01;;;;;;;14.68;11.65;;;;;;;9.13;53.89;99322.41;5090074;28;20036;-72
2021/04/30 08:39:26;;;;;;;19.40;12.43;;;;;;;9.20;52.87;99323.75;5089053;28;20036;-72
2021/04/30 08:41:54;;;;;;;26.42;13.23;;;;;;;9.32;52.71;99329.34;5070206;28;20127;-72
2021/04/30 08:44:19;;;;;;;34.95;12.20;;;;;;;9.43;53.13;99319.13;5083147;28;20029;-71
2021/04/30 08:46:44;;;;;;;19.65;12.48;;;;;;;9.40;51.55;99330.66;5069800;28;20558;-71
2021/04/30 08:49:10;;;;;;;23.35;14.05;;;;;;;9.37;51.70;99322.91;5066264;28;20083;-71
2021/04/30 08:51:37;;;;;;;20.08;14.23;;;;;;;9.40;50.12;99330.66;5063918;28;20055;-71
2021/04/30 08:54:04;;;;;;;18.52;13.40;;;;;;;9.60;50.25;99328.78;5076875;28;20089;-71
2021/04/30 08:56:30;;;;;;;28.38;14.50;;;;;;;9.69;51.03;99330.91;5063433;28;20032;-72
2021/04/30 08:58:55;;;;;;;23.33;14.60;;;;;;;9.75;50.65;99340.28;5049994;28;20044;-72
2021/04/30 09:01:21;;;;;;;21.85;14.27;;;;;;;9.88;50.80;99339.50;5066871;28;20059;-73
2021/04/30 09:03:50;;;;;;;19.98;12.93;;;;;;;9.79;50.62;99336.53;5063522;28;20048;-71
2021/04/30 09:06:30;;;;;;;17.90;11.63;;;;;;;9.81;51.25;99337.31;5063541;28;20047;-71
2021/04/30 09:08:55;;;;;;;23.35;11.98;;;;;;;9.93;49.81;99336.63;5083805;28;20036;-71
2021/04/30 09:11:35;;;;;;;27.60;12.82;;;;;;;9.83;49.10;99336.28;5084035;28;20032;-71
2021/04/30 09:14:24;;;;;;;14.85;11.60;;;;;;;9.68;49.47;99339.75;5090743;28;20032;-73
2021/04/30 09:17:09;;;;;;;17.60;11.95;;;;;;;9.70;48.83;99344.91;5083279;28;20032;-72
2021/04/30 09:19:37;;;;;;;23.92;12.13;;;;;;;9.68;48.92;99343.22;5083553;28;20054;-71
2021/04/30 09:22:07;;;;;;;25.45;13.05;;;;;;;9.68;49.83;99340.59;5083701;28;20064;-73
2021/04/30 09:24:34;;;;;;;19.35;13.50;;;;;;;9.72;48.92;99343.03;5083319;28;20090;-74
2021/04/30 09:27:00;;;;;;;21.63;13.18;;;;;;;9.79;49.59;99347.06;5082605;28;20032;-70
2021/04/30 09:29:27;;;;;;;22.30;12.27;;;;;;;9.80;49.08;99344.34;5084097;28;20487;-70
2021/04/30 09:31:53;;;;;;;27.08;14.27;;;;;;;9.82;48.44;99342.50;5089932;28;20384;-71
2021/04/30 09:34:34;;;;;;;25.52;15.25;;;;;;;9.92;48.05;99348.13;5075708;28;20636;-69
2021/04/30 09:37:02;;;;;;;24.90;14.38;;;;;;;9.71;48.64;99342.19;5055486;28;20036;-71
2021/04/30 09:39:28;;;;;;;23.65;14.85;;;;;;;9.68;48.60;99340.59;5078919;28;20031;-71
2021/04/30 09:42:18;;;;;;;24.10;15.32;;;;;;;9.59;49.43;99340.22;5091607;28;20084;-71
2021/04/30 09:44:45;;;;;;;21.75;12.75;;;;;;;9.61;50.19;99341.00;5089287;28;20040;-70
2021/04/30 09:47:20;;;;;;;33.65;14.05;;;;;;;9.84;49.50;99323.97;5091198;28;20032;-70
2021/04/30 09:49:46;;;;;;;22.92;14.85;;;;;;;10.07;49.19;99333.28;5089307;28;20028;-70
2021/04/30 09:52:12;;;;;;;22.55;14.20;;;;;;;10.19;48.52;99335.25;5083508;28;20074;-69
2021/04/30 09:54:38;;;;;;;22.35;14.10;;;;;;;10.62;48.37;99332.03;5076729;28;20131;-69
2021/04/30 09:57:08;;;;;;;22.42;15.13;;;;;;;11.16;46.98;99333.25;5077991;28;20111;-70
2021/04/30 09:59:36;;;;;;;28.38;14.73;;;;;;;11.49;45.18;99328.69;5080763;28;20036;-70
2021/04/30 10:02:10;;;;;;;17.90;12.80;;;;;;;11.57;45.40;99324.66;5082266;28;20036;-70
2021/04/30 10:04:36;;;;;;;17.55;14.10;;;;;;;12.29;43.90;99323.78;5066769;28;20573;-71
2021/04/30 10:07:07;;;;;;;24.25;16.35;;;;;;;12.84;42.94;99321.03;5081456;28;20488;-73
2021/04/30 10:09:34;;;;;;;21.90;16.05;;;;;;;12.78;42.51;99318.81;5081728;28;20399;-75
2021/04/30 10:12:19;;;;;;;22.42;15.57;;;;;;;13.17;40.98;99322.41;5084311;28;20031;-72
2021/04/30 10:14:45;;;;;;;26.33;15.13;;;;;;;13.52;40.87;99312.06;5079981;28;20099;-71
2021/04/30 10:17:14;;;;;;;19.35;13.50;;;;;;;13.17;41.29;99317.09;5094293;28;20063;-72
2021/04/30 10:19:46;;;;;;;18.05;12.65;;;;;;;12.82;41.83;99316.78;5089603;28;20047;-69
2021/04/30 10:22:20;;;;;;;25.85;16.73;;;;;;;12.46;42.56;99316.47;5096733;28;20086;-70
2021/04/30 10:24:49;;;;;;;24.58;15.98;;;;;;;12.17;43.39;99305.09;5101444;28;20051;-70
2021/04/30 10:27:18;;;;;;;24.77;16.50;;;;;;;12.09;43.89;99314.47;5094675;28;20089;-69
2021/04/30 10:29:49;;;;;;;22.75;14.98;;;;;;;12.24;43.41;99306.41;5087485;28;20031;-72
2021/04/30 10:32:16;;;;;;;21.42;16.33;;;;;;;12.59;41.83;99302.44;5097905;28;20103;-71
2021/04/30 10:34:47;;;;;;;27.42;18.25;;;;;;;12.15;43.68;99303.50;5099054;28;20073;-69
2021/04/30 10:37:20;;;;;;;21.52;15.15;;;;;;;12.37;43.27;99300.34;5107339;28;20035;-71
2021/04/30 10:39:55;;;;;;;21.17;18.45;;;;;;;12.53;42.31;99306.34;5107340;28;20039;-70
2021/04/30 10:42:26;;;;;;;40.45;17.35;;;;;;;12.95;41.93;99296.53;5094730;28;20143;-70
2021/04/30 10:44:59;;;;;;;24.33;19.25;;;;;;;14.28;38.53;99285.56;5087290;28;20043;-70
2021/04/30 10:47:25;;;;;;;28.52;18.27;;;;;;;13.77;39.06;99289.19;5086537;28;20038;-71
2021/04/30 10:50:20;;;;;;;19.60;15.82;;;;;;;14.37;38.97;99275.16;5086797;28;20032;-71
2021/04/30 10:52:54;;;;;;;25.90;19.55;;;;;;;14.74;37.22;99272.47;5067302;28;20603;-72
2021/04/30 10:55:19;;;;;;;24.13;16.17;;;;;;;15.10;37.32;99273.28;5086389;28;20044;-71
2021/04/30 10:57:56;;;;;;;26.13;15.23;;;;;;;15.05;37.29;99270.13;5085320;28;20111;-70
2021/04/30 11:00:27;;;;;;;23.48;15.98;;;;;;;15.10;36.83;99269.78;5086283;28;20085;-71
2021/04/30 11:03:16;;;;;;;23.13;16.15;;;;;;;14.80;37.79;99273.78;5086378;28;20048;-71
2021/04/30 11:06:04;;;;;;;18.67;13.95;;;;;;;14.53;39.07;99279.31;5096528;28;20519;-71
2021/04/30 11:09:00;;;;;;;24.23;16.30;;;;;;;14.34;39.25;99272.69;5099107;28;20031;-71
2021/04/30 11:11:35;;;;;;;36.28;16.27;;;;;;;13.59;41.16;99285.19;5105274;28;20127;-73
2021/04/30 11:14:19;;;;;;;;;;;;;;;13.18;42.00;99280.91;5086343;28;20173;-70
2021/04/30 11:16:46;;;;;;;21.58;16.20;;;;;;;12.98;42.42;99275.16;5085827;28;20417;-71
2021/04/30 11:19:12;;;;;;;25.45;16.45;;;;;;;12.79;42.59;99269.38;5086152;28;20035;-73
2021/04/30 11:21:40;;;;;;;20.42;16.65;;;;;;;12.78;43.02;99273.00;5085967;28;20024;-73
2021/04/30 11:24:28;;;;;;;21.52;14.98;;;;;;;13.13;42.05;99283.00;5079929;28;20672;-73